Time;durP1;ratioP1;P1;durP2;ratioP2;P2;SDS_P1;SDS_P2;PMS_P1;PMS_P2;Temp;Humidity;BMP_temperature;BMP_pressure;BME280_temperature;BME280_humidity;BME280_pressure;Samples;Min_cycle;Max_cycle;Signal;HPM_P1;HPM_P2
2021/09/01 13:21:39;;;;;;;9.93;3.28;;;26.20;94.90;;;;;;5101004;28;20381;-47
2021/09/01 13:24:07;;;;;;;11.40;2.75;;;26.70;94.70;;;;;;5100966;28;20031;-45
2021/09/01 13:26:34;;;;;;;11.85;3.08;;;26.70;94.80;;;;;;5100869;28;20024;-47
2021/09/01 13:29:01;;;;;;;7.22;2.35;;;26.70;94.60;;;;;;5100702;28;20020;-49
2021/09/01 13:31:31;;;;;;;7.57;1.95;;;26.60;94.70;;;;;;5100797;28;20307;-46
2021/09/01 13:34:00;;;;;;;6.10;2.20;;;26.60;94.60;;;;;;5100826;28;20349;-44
2021/09/01 13:36:27;;;;;;;7.22;2.40;;;26.60;94.80;;;;;;5100309;28;20016;-46
2021/09/01 13:38:54;;;;;;;9.05;2.83;;;26.60;94.80;;;;;;5100664;28;20030;-49
2021/09/01 13:41:21;;;;;;;5.93;2.53;;;26.70;95.20;;;;;;5101240;28;20020;-51
2021/09/01 13:43:48;;;;;;;16.30;3.38;;;26.70;95.10;;;;;;5100973;28;20040;-45
2021/09/01 13:46:15;;;;;;;14.32;2.80;;;26.70;95.20;;;;;;5100693;28;20016;-48
2021/09/01 13:48:42;;;;;;;24.17;3.22;;;26.70;95.10;;;;;;5100715;28;20259;-46
2021/09/01 13:51:09;;;;;;;10.45;1.60;;;26.80;95.20;;;;;;5100627;28;20020;-45
2021/09/01 13:53:36;;;;;;;7.75;1.42;;;26.70;94.80;;;;;;5100331;28;20024;-45
2021/09/01 13:56:07;;;;;;;8.02;1.60;;;26.80;94.90;;;;;;5100444;28;20024;-49
2021/09/01 13:58:33;;;;;;;7.28;1.67;;;26.80;95.00;;;;;;5100015;28;20020;-41
2021/09/01 14:01:00;;;;;;;4.90;1.48;;;26.80;95.30;;;;;;5100429;28;20061;-51
2021/09/01 14:03:32;;;;;;;5.70;1.58;;;26.90;95.20;;;;;;5100227;28;20021;-52
2021/09/01 14:06:00;;;;;;;6.88;1.50;;;26.90;95.00;;;;;;5095974;28;20035;-47
2021/09/01 14:08:27;;;;;;;4.65;1.48;;;26.90;95.00;;;;;;5080116;28;20072;-45
2021/09/01 14:10:57;;;;;;;7.72;1.52;;;27.00;95.00;;;;;;5079795;28;20032;-43
2021/09/01 14:13:23;;;;;;;4.57;1.70;;;27.00;95.00;;;;;;5079834;28;20020;-46
2021/09/01 14:15:50;;;;;;;10.73;2.58;;;27.10;94.90;;;;;;5079461;28;20092;-44
2021/09/01 14:18:17;;;;;;;13.52;3.63;;;27.10;94.80;;;;;;5066945;28;20025;-48
2021/09/01 14:20:44;;;;;;;8.57;1.90;;;27.10;94.50;;;;;;5066387;28;20032;-51
2021/09/01 14:23:10;;;;;;;7.82;1.45;;;27.10;94.50;;;;;;5065176;28;20036;-49
2021/09/01 14:25:37;;;;;;;8.65;1.83;;;27.10;94.30;;;;;;5066398;28;20048;-53
2021/09/01 14:28:04;;;;;;;9.38;2.60;;;27.20;94.50;;;;;;5066093;28;20032;-51
2021/09/01 14:30:31;;;;;;;7.82;1.98;;;27.10;94.50;;;;;;5066755;28;20300;-55
2021/09/01 14:32:57;;;;;;;10.55;2.30;;;27.20;94.50;;;;;;5066284;28;20059;-50
2021/09/01 14:35:24;;;;;;;10.70;1.90;;;27.20;94.60;;;;;;5065999;28;20043;-52
2021/09/01 14:37:51;;;;;;;4.55;1.48;;;27.20;94.30;;;;;;5066215;28;20032;-53
2021/09/01 14:40:18;;;;;;;28.38;2.88;;;27.20;94.30;;;;;;5066305;28;20021;-53
2021/09/01 14:42:44;;;;;;;14.18;2.33;;;27.20;94.40;;;;;;5065915;28;20240;-55
2021/09/01 14:45:11;;;;;;;15.40;2.95;;;27.20;94.10;;;;;;5066697;28;20189;-51
2021/09/01 14:47:38;;;;;;;14.88;2.55;;;27.20;93.70;;;;;;5066085;28;20047;-52
2021/09/01 14:50:05;;;;;;;16.63;1.98;;;27.30;94.00;;;;;;5066175;28;20029;-49
2021/09/01 14:52:31;;;;;;;11.55;2.08;;;27.30;94.30;;;;;;5065906;28;20066;-48
2021/09/01 14:54:58;;;;;;;9.75;1.75;;;27.30;93.90;;;;;;5065979;28;20301;-47
2021/09/01 14:57:25;;;;;;;16.10;2.40;;;27.40;93.80;;;;;;5065733;28;20029;-46
2021/09/01 14:59:51;;;;;;;8.70;2.33;;;27.40;93.90;;;;;;5065941;28;20244;-46
2021/09/01 15:02:18;;;;;;;15.90;1.67;;;27.40;94.00;;;;;;5065773;28;20029;-53
2021/09/01 15:04:44;;;;;;;11.63;1.90;;;27.40;93.70;;;;;;5048064;28;20017;-49
2021/09/01 15:07:11;;;;;;;8.75;1.63;;;27.40;93.90;;;;;;5062394;28;20020;-54
2021/09/01 15:09:37;;;;;;;8.15;1.80;;;27.40;93.70;;;;;;5065954;28;20028;-49
2021/09/01 15:12:04;;;;;;;7.88;1.65;;;27.50;93.80;;;;;;5065506;28;20019;-53
2021/09/01 15:14:33;;;;;;;9.32;1.88;;;27.50;93.20;;;;;;5065898;28;20020;-57
2021/09/01 15:17:03;;;;;;;14.70;2.15;;;27.50;93.20;;;;;;5065354;28;20021;-52
2021/09/01 15:19:33;;;;;;;31.95;3.17;;;27.60;93.30;;;;;;5065466;28;20070;-49
2021/09/01 15:22:01;;;;;;;75.70;6.10;;;27.60;93.00;;;;;;5065243;28;20017;-49
2021/09/01 15:24:28;;;;;;;106.40;7.78;;;27.70;92.80;;;;;;5065149;28;20312;-51
2021/09/01 15:26:58;;;;;;;55.78;5.15;;;27.80;92.30;;;;;;5065205;28;20032;-54
2021/09/01 15:29:25;;;;;;;57.38;4.93;;;27.90;92.70;;;;;;5064403;28;20021;-46
2021/09/01 15:31:51;;;;;;;18.30;2.38;;;27.90;92.10;;;;;;5065074;28;20019;-46
2021/09/01 15:34:18;;;;;;;47.63;4.53;;;28.00;92.00;;;;;;5063674;28;20028;-48
2021/09/01 15:36:45;;;;;;;19.55;2.42;;;28.00;92.30;;;;;;5064454;28;20036;-44
2021/09/01 15:39:11;;;;;;;49.72;4.30;;;28.10;91.60;;;;;;5065262;28;20029;-50
2021/09/01 15:41:40;;;;;;;31.83;3.47;;;28.10;91.60;;;;;;5064812;28;20305;-46
2021/09/01 15:44:07;;;;;;;9.52;1.70;;;28.10;91.90;;;;;;5065093;28;20244;-51
2021/09/01 15:46:48;;;;;;;17.33;2.40;;;28.10;91.10;;;;;;5064547;28;20054;-49
2021/09/01 15:49:16;;;;;;;14.98;2.00;;;28.20;91.10;;;;;;5064821;28;20056;-48
2021/09/01 15:51:43;;;;;;;4.75;1.58;;;28.20;91.10;;;;;;5064925;28;20201;-52
2021/09/01 15:54:12;;;;;;;5.70;1.20;;;28.20;90.90;;;;;;5063995;28;20029;-44
2021/09/01 15:56:42;;;;;;;5.38;1.30;;;28.20;90.50;;;;;;5064660;28;20043;-45
2021/09/01 15:59:12;;;;;;;5.18;1.40;;;28.20;90.80;;;;;;5064172;28;20028;-51
2021/09/01 16:01:40;;;;;;;3.17;1.13;;;28.20;90.90;;;;;;5064718;28;20012;-49
2021/09/01 16:04:08;;;;;;;8.02;1.50;;;28.20;90.60;;;;;;5046983;28;20088;-48
2021/09/01 16:06:36;;;;;;;9.98;1.70;;;28.30;90.70;;;;;;5064832;28;20045;-47
2021/09/01 16:09:04;;;;;;;16.02;1.75;;;28.40;91.00;;;;;;5064750;28;20032;-49
2021/09/01 16:11:33;;;;;;;5.70;1.70;;;28.40;91.20;;;;;;5064387;28;20031;-45
2021/09/01 16:14:12;;;;;;;5.30;1.70;;;28.50;90.70;;;;;;5064633;28;20025;-45
2021/09/01 16:16:44;;;;;;;5.13;1.70;;;28.50;90.70;;;;;;5064527;28;20017;-45
2021/09/01 16:19:21;;;;;;;5.13;1.50;;;28.50;90.70;;;;;;5063599;28;20206;-48
2021/09/01 16:21:52;;;;;;;4.00;1.40;;;28.50;90.20;;;;;;5063885;28;20122;-45
2021/09/01 16:24:21;;;;;;;39.72;3.95;;;28.50;90.00;;;;;;5059962;28;20032;-52
2021/09/01 16:26:48;;;;;;;11.68;2.17;;;28.60;90.30;;;;;;5057883;28;20071;-48
2021/09/01 16:29:18;;;;;;;6.88;1.67;;;28.60;90.00;;;;;;5044254;28;20037;-51
2021/09/01 16:31:46;;;;;;;8.15;1.95;;;28.60;89.70;;;;;;5061336;28;20236;-46
2021/09/01 16:34:14;;;;;;;23.92;2.83;;;28.60;90.40;;;;;;5064088;28;20025;-49
2021/09/01 16:36:41;;;;;;;15.50;1.95;;;28.70;90.60;;;;;;5062910;28;20347;-50
2021/09/01 16:39:13;;;;;;;14.88;2.40;;;28.70;90.60;;;;;;5063341;28;20025;-47
2021/09/01 16:41:49;;;;;;;9.60;1.93;;;28.70;91.00;;;;;;5063009;28;20037;-45
2021/09/01 16:44:18;;;;;;;30.80;3.17;;;28.80;90.70;;;;;;5063631;28;20029;-46
2021/09/01 16:46:47;;;;;;;18.45;2.30;;;28.80;90.50;;;;;;5059467;28;20032;-52
2021/09/01 16:49:14;;;;;;;15.38;2.25;;;28.80;90.30;;;;;;5064101;28;20047;-47
2021/09/01 16:51:42;;;;;;;15.57;2.13;;;28.90;90.70;;;;;;5063341;28;20029;-46
2021/09/01 16:54:11;;;;;;;17.25;2.42;;;28.90;90.80;;;;;;5063515;28;20071;-51
2021/09/01 16:56:51;;;;;;;14.63;2.45;;;29.00;90.70;;;;;;5043971;28;20251;-48
2021/09/01 16:59:46;;;;;;;12.13;1.73;;;29.00;91.00;;;;;;5063449;28;20025;-48
2021/09/01 17:02:13;;;;;;;8.85;2.10;;;29.00;90.70;;;;;;5048868;28;20158;-45
2021/09/01 17:04:41;;;;;;;14.00;2.22;;;29.00;90.60;;;;;;5062326;28;20020;-48
2021/09/01 17:07:11;;;;;;;4.00;1.52;;;29.00;90.80;;;;;;5062678;28;20025;-48
2021/09/01 17:09:43;;;;;;;6.80;1.50;;;29.00;90.70;;;;;;5051733;28;20186;-50
2021/09/01 17:12:13;;;;;;;5.88;1.65;;;29.10;90.30;;;;;;5062709;28;20020;-44
2021/09/01 17:14:40;;;;;;;16.88;2.30;;;29.10;90.30;;;;;;5059779;28;20043;-44
2021/09/01 17:17:07;;;;;;;27.20;2.75;;;29.20;90.80;;;;;;5062413;28;20025;-49
2021/09/01 17:19:36;;;;;;;9.32;1.92;;;29.20;89.70;;;;;;5051665;28;20041;-48
2021/09/01 17:22:04;;;;;;;11.48;1.77;;;29.30;88.80;;;;;;5061692;28;20016;-43
2021/09/01 17:24:30;;;;;;;5.47;1.30;;;29.40;89.30;;;;;;5062683;28;20020;-49
2021/09/01 17:26:59;;;;;;;7.70;1.65;;;29.40;88.20;;;;;;5060790;28;20425;-48
2021/09/01 17:29:50;;;;;;;31.55;3.40;;;29.40;88.80;;;;;;5053012;28;20265;-45
2021/09/01 17:32:18;;;;;;;10.30;2.15;;;29.40;88.90;;;;;;5062445;28;20074;-47
2021/09/01 17:34:49;;;;;;;10.07;1.65;;;29.40;88.40;;;;;;5063601;28;20070;-45
2021/09/01 17:37:19;;;;;;;9.30;2.05;;;29.50;87.10;;;;;;5062298;28;20076;-46
2021/09/01 17:39:46;;;;;;;5.65;1.88;;;29.40;86.30;;;;;;5063469;28;20097;-49
2021/09/01 17:42:15;;;;;;;8.00;1.77;;;29.30;87.40;;;;;;5061597;28;20043;-46
2021/09/01 17:44:42;;;;;;;13.35;1.90;;;29.30;88.10;;;;;;5062541;28;20024;-47
2021/09/01 17:47:09;;;;;;;3.72;1.50;;;29.30;88.30;;;;;;5063081;28;20220;-49
2021/09/01 17:49:36;;;;;;;6.93;1.95;;;29.20;88.00;;;;;;5063200;28;20036;-47
2021/09/01 17:52:04;;;;;;;6.03;1.70;;;29.20;88.70;;;;;;5063874;28;20019;-48
2021/09/01 17:54:33;;;;;;;3.75;1.70;;;29.20;88.90;;;;;;5065991;28;20029;-47
2021/09/01 17:57:00;;;;;;;15.23;2.20;;;29.20;89.20;;;;;;5066810;28;20016;-48
2021/09/01 17:59:32;;;;;;;14.77;2.80;;;29.20;88.90;;;;;;5066992;28;20099;-47
2021/09/01 18:01:59;;;;;;;10.45;1.83;;;29.20;89.80;;;;;;5066774;28;20264;-58
2021/09/01 18:04:26;;;;;;;16.85;2.47;;;29.20;88.40;;;;;;5066990;28;20036;-46
2021/09/01 18:06:53;;;;;;;12.80;2.20;;;29.20;88.90;;;;;;5066464;28;20084;-43
2021/09/01 18:09:19;;;;;;;16.20;2.40;;;29.20;89.60;;;;;;5066713;28;20025;-46
2021/09/01 18:11:46;;;;;;;13.23;2.22;;;29.20;89.20;;;;;;5066514;28;20012;-47
2021/09/01 18:14:12;;;;;;;8.32;2.65;;;29.30;90.00;;;;;;5066716;28;20185;-49
2021/09/01 18:16:39;;;;;;;10.60;2.60;;;29.30;89.80;;;;;;5066307;28;20063;-47
2021/09/01 18:19:06;;;;;;;6.20;2.38;;;29.30;89.30;;;;;;5066632;28;20025;-46
2021/09/01 18:21:32;;;;;;;8.45;3.13;;;29.30;89.50;;;;;;5066185;28;20032;-44
2021/09/01 18:23:59;;;;;;;5.07;2.38;;;29.30;89.20;;;;;;5066507;28;20024;-46
2021/09/01 18:26:25;;;;;;;8.10;2.75;;;29.30;88.80;;;;;;5066313;28;20017;-47
2021/09/01 18:28:52;;;;;;;4.47;2.38;;;29.30;88.80;;;;;;5066213;28;20057;-50
2021/09/01 18:31:20;;;;;;;5.90;2.10;;;29.30;88.90;;;;;;5065955;28;20025;-46
2021/09/01 18:33:46;;;;;;;6.55;3.80;;;29.30;88.70;;;;;;5066243;28;20301;-45
2021/09/01 18:36:13;;;;;;;7.10;3.47;;;29.30;88.10;;;;;;5065890;28;20053;-54
2021/09/01 18:38:40;;;;;;;7.88;3.72;;;29.30;87.80;;;;;;5066184;28;20392;-45
2021/09/01 18:41:16;;;;;;;8.52;3.25;;;29.30;88.00;;;;;;5065884;28;20028;-47
2021/09/01 18:43:48;;;;;;;5.18;3.00;;;29.30;88.10;;;;;;5065760;28;20017;-45
2021/09/01 18:46:14;;;;;;;4.78;3.10;;;29.30;88.00;;;;;;5065981;28;20076;-48
2021/09/01 18:48:41;;;;;;;9.90;3.10;;;29.40;88.20;;;;;;5065710;28;20029;-45
2021/09/01 18:51:10;;;;;;;5.65;3.60;;;29.40;88.10;;;;;;5065650;28;20031;-49
2021/09/01 18:53:36;;;;;;;10.65;3.28;;;29.40;87.50;;;;;;5065454;28;20198;-46
2021/09/01 18:56:04;;;;;;;9.48;2.92;;;29.40;87.80;;;;;;5065746;28;20239;-45
2021/09/01 18:58:30;;;;;;;23.13;3.42;;;29.40;87.30;;;;;;5065701;28;20026;-46
2021/09/01 19:01:05;;;;;;;11.32;3.70;;;29.50;87.00;;;;;;5065778;28;20020;-55
2021/09/01 19:03:56;;;;;;;13.18;3.40;;;29.50;85.80;;;;;;5065422;28;20063;-48
2021/09/01 19:06:32;;;;;;;15.20;2.63;;;29.50;86.90;;;;;;5052112;28;20032;-49
2021/09/01 19:09:03;;;;;;;12.98;2.67;;;29.50;87.10;;;;;;5048473;28;20058;-45
2021/09/01 19:11:32;;;;;;;8.40;2.20;;;29.60;86.80;;;;;;5065394;28;20031;-50
2021/09/01 19:14:04;;;;;;;8.57;2.15;;;29.60;86.50;;;;;;5065717;28;20052;-51
2021/09/01 19:16:30;;;;;;;38.70;3.65;;;29.60;86.50;;;;;;5065302;28;20063;-48
2021/09/01 19:18:57;;;;;;;66.57;6.35;;;29.60;85.70;;;;;;5065588;28;20040;-54
2021/09/01 19:21:24;;;;;;;32.53;3.38;;;29.60;84.80;;;;;;5065141;28;20237;-49
2021/09/01 19:23:55;;;;;;;51.58;5.35;;;29.60;84.00;;;;;;5065409;28;20423;-45
2021/09/01 19:26:24;;;;;;;39.00;4.47;;;29.70;84.60;;;;;;5065031;28;20220;-47
2021/09/01 19:28:56;;;;;;;33.35;4.25;;;29.70;84.90;;;;;;5065121;28;20059;-52
2021/09/01 19:31:23;;;;;;;48.65;5.07;;;29.80;84.50;;;;;;5064199;28;20052;-55
2021/09/01 19:33:50;;;;;;;61.47;6.30;;;29.90;84.00;;;;;;5064458;28;20033;-46
2021/09/01 19:36:16;;;;;;;55.97;8.30;;;29.90;83.80;;;;;;5064298;28;20020;-43
2021/09/01 19:38:43;;;;;;;44.92;4.95;;;29.90;83.60;;;;;;5064423;28;20019;-44
2021/09/01 19:41:10;;;;;;;37.90;6.38;;;30.00;83.90;;;;;;5064841;28;20402;-50
2021/09/01 19:43:38;;;;;;;31.73;3.75;;;30.00;84.00;;;;;;5064348;28;20013;-53
2021/09/01 19:46:05;;;;;;;25.75;3.40;;;30.00;84.30;;;;;;5064862;28;20197;-48
2021/09/01 19:48:32;;;;;;;62.90;5.75;;;30.00;83.10;;;;;;5064841;28;20076;-54
2021/09/01 19:50:58;;;;;;;39.30;4.70;;;30.10;83.50;;;;;;5064671;28;20237;-51
2021/09/01 19:53:26;;;;;;;33.78;6.63;;;30.10;82.00;;;;;;5064295;28;20024;-47
2021/09/01 19:55:53;;;;;;;47.83;9.13;;;30.10;81.40;;;;;;5064744;28;20212;-48
2021/09/01 19:58:20;;;;;;;20.77;4.40;;;30.10;81.00;;;;;;5064154;28;20019;-53
2021/09/01 20:00:48;;;;;;;21.58;4.00;;;30.10;80.50;;;;;;5053521;28;20031;-50
2021/09/01 20:03:15;;;;;;;29.33;4.95;;;30.10;80.50;;;;;;5054364;28;20020;-47
2021/09/01 20:05:43;;;;;;;17.55;3.10;;;30.10;80.80;;;;;;5054373;28;20049;-53
2021/09/01 20:08:10;;;;;;;32.47;4.93;;;30.10;80.50;;;;;;5064245;28;20080;-53
2021/09/01 20:10:37;;;;;;;30.60;4.03;;;30.00;80.50;;;;;;5064894;28;20028;-47
2021/09/01 20:13:04;;;;;;;40.45;4.05;;;30.10;81.00;;;;;;5063680;28;20070;-49
2021/09/01 20:15:31;;;;;;;43.15;5.35;;;30.10;80.50;;;;;;5063470;28;20325;-47
2021/09/01 20:17:59;;;;;;;76.53;6.78;;;30.20;80.50;;;;;;5064429;28;20017;-47
2021/09/01 20:20:25;;;;;;;59.80;6.40;;;30.20;79.60;;;;;;5064012;28;20048;-51
2021/09/01 20:22:53;;;;;;;43.30;5.53;;;30.20;79.10;;;;;;5063270;28;20088;-56
2021/09/01 20:25:20;;;;;;;46.15;4.78;;;30.20;79.80;;;;;;5052068;28;20343;-47
2021/09/01 20:27:47;;;;;;;37.17;5.03;;;30.20;80.50;;;;;;5053346;28;20016;-53
2021/09/01 20:30:14;;;;;;;33.33;3.67;;;30.30;78.30;;;;;;5055049;28;20037;-53
2021/09/01 20:32:40;;;;;;;19.63;2.47;;;30.30;78.10;;;;;;5063157;28;20043;-45
2021/09/01 20:35:07;;;;;;;39.55;3.22;;;30.20;78.10;;;;;;5045883;28;20048;-52
2021/09/01 20:37:34;;;;;;;108.28;8.05;;;30.20;78.60;;;;;;5063661;28;20095;-48
2021/09/01 20:40:01;;;;;;;97.97;9.73;;;30.30;79.80;;;;;;5053293;28;20066;-45
2021/09/01 20:42:34;;;;;;;45.90;6.15;;;30.40;78.10;;;;;;5053881;28;20032;-50
2021/09/01 20:45:02;;;;;;;47.00;5.60;;;30.40;77.90;;;;;;5064095;28;20092;-57
2021/09/01 20:47:40;;;;;;;36.10;4.47;;;30.30;79.40;;;;;;5063714;28;20040;-51
2021/09/01 20:50:07;;;;;;;30.17;4.60;;;30.30;79.20;;;;;;5063815;28;20021;-50
2021/09/01 20:52:37;;;;;;;56.00;5.03;;;30.30;79.80;;;;;;5063675;28;20021;-48
2021/09/01 20:55:05;;;;;;;28.15;4.07;;;30.30;80.70;;;;;;5064066;28;20100;-48
2021/09/01 20:57:37;;;;;;;31.80;3.95;;;30.30;81.50;;;;;;5063158;28;20313;-51
2021/09/01 21:00:09;;;;;;;23.50;3.50;;;30.30;81.60;;;;;;5062249;28;20070;-53
2021/09/01 21:02:36;;;;;;;99.18;8.63;;;30.20;81.20;;;;;;5063209;28;20309;-45
2021/09/01 21:05:04;;;;;;;80.80;7.05;;;30.20;81.20;;;;;;5063894;28;20036;-44
2021/09/01 21:07:31;;;;;;;59.97;5.95;;;30.20;80.90;;;;;;5063378;28;20297;-46
2021/09/01 21:10:00;;;;;;;56.20;5.75;;;30.20;81.10;;;;;;5063692;28;20095;-54
2021/09/01 21:12:26;;;;;;;45.85;5.35;;;30.20;81.20;;;;;;5063698;28;20213;-47
2021/09/01 21:14:57;;;;;;;35.85;4.72;;;30.20;81.70;;;;;;5063760;28;20150;-48
2021/09/01 21:17:25;;;;;;;41.15;4.45;;;30.20;81.40;;;;;;5063455;28;20362;-55
2021/09/01 21:20:04;;;;;;;132.82;10.82;;;30.20;81.50;;;;;;5063484;28;20069;-49
2021/09/01 21:22:37;;;;;;;100.82;8.13;;;30.20;81.50;;;;;;5063372;28;20032;-57
2021/09/01 21:25:07;;;;;;;97.90;8.13;;;30.20;81.00;;;;;;5063875;28;20033;-48
2021/09/01 21:27:35;;;;;;;80.15;7.78;;;30.20;81.40;;;;;;5065449;28;20024;-50
2021/09/01 21:30:10;;;;;;;71.53;6.53;;;30.20;81.20;;;;;;5067751;28;20025;-51
2021/09/01 21:32:37;;;;;;;52.75;5.28;;;30.20;80.00;;;;;;5067523;28;20017;-50
2021/09/01 21:35:07;;;;;;;47.80;6.00;;;30.20;80.90;;;;;;5067289;28;20233;-46
2021/09/01 21:37:34;;;;;;;72.28;6.78;;;30.20;81.20;;;;;;5067580;28;20025;-45
2021/09/01 21:40:05;;;;;;;47.28;4.70;;;30.20;81.10;;;;;;5067671;28;20054;-48
2021/09/01 21:42:33;;;;;;;45.00;4.45;;;30.20;80.20;;;;;;5067369;28;20331;-45
2021/09/01 21:45:00;;;;;;;46.50;5.72;;;30.20;81.50;;;;;;5067468;28;20033;-47
2021/09/01 21:47:27;;;;;;;60.47;6.65;;;30.20;81.50;;;;;;5067348;28;20016;-46
2021/09/01 21:49:54;;;;;;;51.53;6.20;;;30.20;81.80;;;;;;5067843;28;20071;-47
2021/09/01 21:52:20;;;;;;;49.58;4.65;;;30.20;81.40;;;;;;5067284;28;20044;-50
2021/09/01 21:54:47;;;;;;;42.15;4.60;;;30.20;80.90;;;;;;5067182;28;20029;-46
2021/09/01 21:57:13;;;;;;;56.67;5.57;;;30.20;81.30;;;;;;5066971;28;20016;-49
2021/09/01 21:59:40;;;;;;;38.10;4.82;;;30.20;81.90;;;;;;5067201;28;20028;-53
2021/09/01 22:02:07;;;;;;;40.30;4.85;;;30.20;82.50;;;;;;5066980;28;20025;-53
2021/09/01 22:04:33;;;;;;;32.25;4.72;;;30.20;81.60;;;;;;5066847;28;20017;-55
2021/09/01 22:07:01;;;;;;;28.45;4.13;;;30.20;81.80;;;;;;5067054;28;20057;-54
2021/09/01 22:09:28;;;;;;;45.60;5.10;;;30.20;82.10;;;;;;5067306;28;20036;-53
2021/09/01 22:11:55;;;;;;;36.03;4.22;;;30.20;81.10;;;;;;5066741;28;20383;-54
2021/09/01 22:14:22;;;;;;;22.58;3.30;;;30.20;81.50;;;;;;5066768;28;20039;-54
2021/09/01 22:16:48;;;;;;;25.25;3.70;;;30.20;81.90;;;;;;5066579;28;20088;-54
2021/09/01 22:19:15;;;;;;;39.88;4.35;;;30.20;82.00;;;;;;5066424;28;20033;-59
2021/09/01 22:21:42;;;;;;;97.30;8.82;;;30.20;81.90;;;;;;5066285;28;20036;-55
2021/09/01 22:24:08;;;;;;;81.88;8.57;;;30.10;83.10;;;;;;5066600;28;20324;-55
2021/09/01 22:26:35;;;;;;;81.97;8.88;;;30.10;84.90;;;;;;5066365;28;20025;-55
2021/09/01 22:29:02;;;;;;;85.40;9.70;;;30.00;85.80;;;;;;5066286;28;20089;-56
2021/09/01 22:31:28;;;;;;;92.50;11.48;;;30.00;87.20;;;;;;5066270;28;20024;-55
2021/09/01 22:33:55;;;;;;;75.75;9.52;;;29.90;87.30;;;;;;5066218;28;20029;-58
2021/09/01 22:36:21;;;;;;;92.20;11.40;;;30.00;87.70;;;;;;5066099;28;20021;-54
2021/09/01 22:38:48;;;;;;;79.38;10.93;;;29.90;88.30;;;;;;5065594;28;20032;-56
2021/09/01 22:41:15;;;;;;;69.32;9.73;;;29.90;89.00;;;;;;5066159;28;20118;-46
2021/09/01 22:43:41;;;;;;;87.05;11.45;;;29.80;89.50;;;;;;5048105;28;20240;-54
2021/09/01 22:46:08;;;;;;;49.10;8.02;;;29.80;89.70;;;;;;5066082;28;20021;-59
2021/09/01 22:48:34;;;;;;;49.25;8.45;;;29.80;89.90;;;;;;5066125;28;20021;-46
2021/09/01 22:51:01;;;;;;;38.80;7.43;;;29.80;89.70;;;;;;5065952;28;20317;-52
2021/09/01 22:53:28;;;;;;;124.22;15.52;;;29.90;90.00;;;;;;5066290;28;20021;-52
2021/09/01 22:55:54;;;;;;;69.45;11.32;;;29.90;90.20;;;;;;5065911;28;20317;-54
2021/09/01 22:58:21;;;;;;;89.07;10.60;;;29.90;90.20;;;;;;5065825;28;20186;-52
2021/09/01 23:00:48;;;;;;;78.78;11.80;;;29.90;90.20;;;;;;5066356;28;20027;-51
2021/09/01 23:03:15;;;;;;;63.80;10.02;;;29.90;90.30;;;;;;5065996;28;20021;-51
2021/09/01 23:05:42;;;;;;;82.22;10.60;;;29.90;90.30;;;;;;5065822;28;20048;-51
2021/09/01 23:08:08;;;;;;;103.70;12.25;;;29.90;90.50;;;;;;5063753;28;20033;-52
2021/09/01 23:10:35;;;;;;;79.13;9.50;;;29.90;90.60;;;;;;5065862;28;20091;-51
2021/09/01 23:13:04;;;;;;;62.30;8.85;;;29.80;90.50;;;;;;5064914;28;20063;-52
2021/09/01 23:15:31;;;;;;;84.75;11.20;;;29.80;90.60;;;;;;5065381;28;20041;-58
2021/09/01 23:17:57;;;;;;;82.15;10.68;;;29.70;90.60;;;;;;5071810;28;20036;-52
2021/09/01 23:20:24;;;;;;;88.38;12.00;;;29.70;90.70;;;;;;5065910;28;20052;-57
2021/09/01 23:22:51;;;;;;;51.03;9.25;;;29.70;90.60;;;;;;5065235;28;20082;-50
2021/09/01 23:25:18;;;;;;;37.03;6.57;;;29.70;90.50;;;;;;5065980;28;20033;-56
2021/09/01 23:27:44;;;;;;;53.65;8.05;;;29.70;90.60;;;;;;5064317;28;20020;-48
2021/09/01 23:30:11;;;;;;;70.45;11.48;;;29.70;90.50;;;;;;5065796;28;20354;-48
2021/09/01 23:32:38;;;;;;;60.58;8.73;;;29.70;90.60;;;;;;5064956;28;20329;-47
2021/09/01 23:35:06;;;;;;;86.38;10.70;;;29.60;90.60;;;;;;5064284;28;20082;-46
2021/09/01 23:37:33;;;;;;;80.78;10.88;;;29.60;90.60;;;;;;5065173;28;20151;-46
2021/09/01 23:39:59;;;;;;;71.38;10.02;;;29.60;90.70;;;;;;5065271;28;20032;-50
2021/09/01 23:42:27;;;;;;;72.05;10.98;;;29.60;90.80;;;;;;5065164;28;20080;-45
2021/09/01 23:44:54;;;;;;;57.53;8.40;;;29.60;90.80;;;;;;5065233;28;20321;-49
2021/09/01 23:47:21;;;;;;;36.90;6.57;;;29.60;90.70;;;;;;5065105;28;20017;-53
2021/09/01 23:49:48;;;;;;;18.67;5.13;;;29.60;90.80;;;;;;5046092;28;20252;-47
2021/09/01 23:52:15;;;;;;;16.45;4.82;;;29.60;90.80;;;;;;5064261;28;20016;-46
2021/09/01 23:54:42;;;;;;;16.15;4.85;;;29.50;90.80;;;;;;5065056;28;20031;-49
2021/09/01 23:57:09;;;;;;;10.15;4.05;;;29.50;90.80;;;;;;5064719;28;20025;-53
2021/09/01 23:59:36;;;;;;;9.63;4.28;;;29.50;90.90;;;;;;5064100;28;20021;-49
